Time;durP1;ratioP1;P1;durP2;ratioP2;P2;SDS_P1;SDS_P2;PMS_P1;PMS_P2;Temp;Humidity;BMP_temperature;BMP_pressure;BME280_temperature;BME280_humidity;BME280_pressure;Samples;Min_cycle;Max_cycle;Signal;HPM_P1;HPM_P2
2020/12/18 00:01:59;;;;;;;49.65;6.63;;;;;;;12.22;100.00;101323.78;5090614;28;20515;-68
2020/12/18 00:04:25;;;;;;;42.28;5.38;;;;;;;12.23;100.00;101339.16;5090466;28;20036;-67
2020/12/18 00:06:51;;;;;;;41.50;5.40;;;;;;;12.23;100.00;101311.75;5090343;28;20036;-68
2020/12/18 00:09:16;;;;;;;38.80;5.15;;;;;;;12.23;100.00;101328.19;5090621;28;20133;-68
2020/12/18 00:11:42;;;;;;;39.00;5.65;;;;;;;12.22;100.00;101310.94;5089238;28;20513;-68
2020/12/18 00:14:07;;;;;;;51.40;6.25;;;;;;;12.23;100.00;101306.28;5090143;28;20050;-68
2020/12/18 00:16:34;;;;;;;51.97;6.03;;;;;;;12.24;100.00;101325.22;5093362;28;20036;-68
2020/12/18 00:18:59;;;;;;;48.65;6.07;;;;;;;12.25;100.00;101315.94;5094355;28;20056;-68
2020/12/18 00:21:25;;;;;;;44.53;6.65;;;;;;;12.26;100.00;101316.75;5094141;28;20566;-68
2020/12/18 00:23:51;;;;;;;40.45;5.15;;;;;;;12.26;100.00;101323.06;5094179;28;20090;-68
2020/12/18 00:26:18;;;;;;;47.95;6.95;;;;;;;12.27;100.00;101329.38;5092923;28;20055;-68
2020/12/18 00:28:45;;;;;;;42.08;5.85;;;;;;;12.26;100.00;101295.69;5093852;28;20129;-68
2020/12/18 00:31:10;;;;;;;47.67;7.07;;;;;;;12.28;100.00;101304.47;5094020;28;20113;-68
2020/12/18 00:33:36;;;;;;;44.33;7.35;;;;;;;12.28;100.00;101299.00;5093977;28;20060;-68
2020/12/18 00:36:03;;;;;;;47.35;5.88;;;;;;;12.28;100.00;101298.16;5093888;28;20036;-68
2020/12/18 00:38:29;;;;;;;52.55;6.40;;;;;;;12.28;100.00;101282.56;5094109;28;20424;-68
2020/12/18 00:40:55;;;;;;;44.03;5.72;;;;;;;12.27;100.00;101300.06;5093975;28;20036;-67
2020/12/18 00:43:21;;;;;;;50.78;5.78;;;;;;;12.26;100.00;101298.41;5092484;28;20494;-68
2020/12/18 00:45:46;;;;;;;39.67;6.00;;;;;;;12.26;100.00;101306.63;5093831;28;20042;-68
2020/12/18 00:48:12;;;;;;;42.22;5.20;;;;;;;12.26;100.00;101312.09;5092267;28;20047;-68
2020/12/18 00:50:38;;;;;;;47.83;5.90;;;;;;;12.26;100.00;101301.16;5093475;28;20071;-68
2020/12/18 00:53:04;;;;;;;38.53;4.78;;;;;;;12.26;100.00;101312.09;5093829;28;20478;-68
2020/12/18 00:55:33;;;;;;;33.92;5.68;;;;;;;12.24;100.00;101314.25;5093403;28;20074;-68
2020/12/18 00:57:59;;;;;;;36.17;4.32;;;;;;;12.25;100.00;101310.44;5093328;28;20036;-68
2020/12/18 01:00:24;;;;;;;37.25;4.72;;;;;;;12.25;100.00;101301.41;5093580;28;20043;-67
2020/12/18 01:02:50;;;;;;;39.63;4.95;;;;;;;12.23;100.00;101289.84;5093384;28;20082;-68
2020/12/18 01:05:15;;;;;;;33.40;4.75;;;;;;;12.24;100.00;101302.47;5093277;28;20036;-68
2020/12/18 01:07:41;;;;;;;36.50;4.22;;;;;;;12.24;100.00;101286.03;5093179;28;20058;-68
2020/12/18 01:10:07;;;;;;;35.25;5.35;;;;;;;12.23;100.00;101282.47;5093250;28;20051;-68
2020/12/18 01:12:32;;;;;;;38.25;4.30;;;;;;;12.23;100.00;101279.72;5093204;28;20105;-68
2020/12/18 01:14:58;;;;;;;29.73;4.80;;;;;;;12.23;100.00;101278.91;5093444;28;20474;-67
2020/12/18 01:17:23;;;;;;;39.42;4.90;;;;;;;12.22;100.00;101264.38;5093106;28;20036;-67
2020/12/18 01:19:49;;;;;;;36.13;4.88;;;;;;;12.23;100.00;101268.78;5092998;28;20047;-67
2020/12/18 01:22:15;;;;;;;35.53;5.30;;;;;;;12.25;100.00;101271.28;5093352;28;20044;-68
2020/12/18 01:24:40;;;;;;;36.33;5.25;;;;;;;12.25;100.00;101279.50;5092984;28;20032;-67
2020/12/18 01:27:06;;;;;;;31.23;4.00;;;;;;;12.25;100.00;101261.16;5092258;28;20482;-67
2020/12/18 01:29:31;;;;;;;40.42;5.18;;;;;;;12.26;100.00;101272.94;5092893;28;20067;-68
2020/12/18 01:31:57;;;;;;;36.75;4.50;;;;;;;12.26;100.00;101272.94;5092974;28;20085;-68
2020/12/18 01:34:22;;;;;;;34.88;5.30;;;;;;;12.26;100.00;101271.03;5092512;28;20514;-68
2020/12/18 01:36:48;;;;;;;39.92;4.68;;;;;;;12.25;100.00;101263.88;5092766;28;20463;-68
2020/12/18 01:39:14;;;;;;;29.60;4.38;;;;;;;12.26;100.00;101268.28;5092617;28;20044;-68
2020/12/18 01:41:39;;;;;;;48.83;5.72;;;;;;;12.27;100.00;101259.00;5092557;28;20048;-68
2020/12/18 01:44:05;;;;;;;46.92;6.10;;;;;;;12.27;100.00;101259.00;5092923;28;20075;-68
2020/12/18 01:46:31;;;;;;;42.97;5.45;;;;;;;12.28;100.00;101248.88;5092636;28;20032;-68
2020/12/18 01:48:58;;;;;;;51.83;6.55;;;;;;;12.27;100.00;101242.56;5091126;28;20071;-67
2020/12/18 01:51:24;;;;;;;37.92;4.60;;;;;;;12.27;100.00;101237.09;5092721;28;20042;-68
2020/12/18 01:53:51;;;;;;;41.30;5.00;;;;;;;12.27;100.00;101250.78;5092352;28;20059;-67
2020/12/18 01:56:16;;;;;;;34.13;4.40;;;;;;;12.28;100.00;101226.97;5091982;28;20093;-67
2020/12/18 01:58:44;;;;;;;41.05;5.03;;;;;;;12.27;100.00;101220.66;5092265;28;20036;-68
2020/12/18 02:01:10;;;;;;;41.88;4.82;;;;;;;12.28;100.00;101216.84;5092415;28;20851;-68
2020/12/18 02:03:36;;;;;;;39.30;5.55;;;;;;;12.28;100.00;101205.88;5092247;28;20067;-68
2020/12/18 02:06:13;;;;;;;34.63;5.20;;;;;;;12.29;100.00;101242.31;5092112;28;20043;-68
2020/12/18 02:08:42;;;;;;;36.40;5.30;;;;;;;12.29;100.00;101226.72;5092096;28;20050;-68
2020/12/18 02:11:10;;;;;;;32.53;5.65;;;;;;;12.29;100.00;101218.50;5092020;28;20040;-68
2020/12/18 02:13:36;;;;;;;38.47;4.90;;;;;;;12.30;100.00;101220.16;5091781;28;20040;-68
2020/12/18 02:16:01;;;;;;;42.47;4.63;;;;;;;12.30;100.00;101208.38;5092147;28;20040;-68
2020/12/18 02:18:27;;;;;;;41.28;5.20;;;;;;;12.30;100.00;101209.19;5091819;28;20044;-68
2020/12/18 02:20:54;;;;;;;31.58;4.93;;;;;;;12.30;100.00;101209.19;5091846;28;20073;-68
2020/12/18 02:23:19;;;;;;;43.08;4.82;;;;;;;12.30;100.00;101208.38;5091804;28;20050;-68
2020/12/18 02:26:05;;;;;;;29.63;4.43;;;;;;;12.31;100.00;101216.34;5091824;28;20036;-68
2020/12/18 02:28:31;;;;;;;37.30;5.53;;;;;;;12.30;100.00;101217.41;5091733;28;20054;-67
2020/12/18 02:30:57;;;;;;;34.30;4.43;;;;;;;12.30;100.00;101181.81;5091677;28;20044;-68
2020/12/18 02:33:23;;;;;;;37.45;4.03;;;;;;;12.31;100.00;101193.59;5091676;28;20043;-68
2020/12/18 02:35:49;;;;;;;43.10;5.82;;;;;;;12.29;100.00;101213.00;5091465;28;20042;-68
2020/12/18 02:38:14;;;;;;;40.92;4.88;;;;;;;12.30;100.00;101214.69;5090764;28;20157;-68
2020/12/18 02:40:40;;;;;;;40.15;4.72;;;;;;;12.30;100.00;101225.63;5091533;28;20036;-68
2020/12/18 02:43:05;;;;;;;35.03;4.78;;;;;;;12.29;100.00;101196.59;5091374;28;20051;-68
2020/12/18 02:45:31;;;;;;;46.28;5.53;;;;;;;12.29;100.00;101223.97;5091490;28;20032;-68
2020/12/18 02:47:56;;;;;;;38.22;5.15;;;;;;;12.30;100.00;101184.53;5091502;28;20036;-68
2020/12/18 02:50:22;;;;;;;41.05;4.40;;;;;;;12.30;100.00;101211.94;5091328;28;20035;-68
2020/12/18 02:52:47;;;;;;;38.50;4.75;;;;;;;12.29;100.00;101174.66;5091345;28;20052;-68
2020/12/18 02:55:13;;;;;;;33.60;4.97;;;;;;;12.29;100.00;101213.00;5089739;28;20074;-68
2020/12/18 02:57:39;;;;;;;38.95;5.45;;;;;;;12.29;100.00;101210.28;5090995;28;20040;-68
2020/12/18 03:00:05;;;;;;;36.33;5.00;;;;;;;12.29;100.00;101202.06;5091270;28;20036;-68
2020/12/18 03:02:31;;;;;;;46.88;5.65;;;;;;;12.30;100.00;101209.19;5091437;28;20040;-68
2020/12/18 03:04:56;;;;;;;47.38;6.07;;;;;;;12.31;100.00;101210.88;5091056;28;20035;-68
2020/12/18 03:07:22;;;;;;;33.50;5.00;;;;;;;12.31;100.00;101230.03;5091537;28;20085;-68
2020/12/18 03:09:48;;;;;;;41.67;5.50;;;;;;;12.30;100.00;101228.38;5091374;28;20478;-68
2020/12/18 03:12:13;;;;;;;35.47;5.80;;;;;;;12.30;100.00;101209.19;5090960;28;20132;-68
2020/12/18 03:14:39;;;;;;;51.63;6.10;;;;;;;12.29;100.00;101202.06;5090988;28;20040;-68
2020/12/18 03:17:04;;;;;;;40.78;5.70;;;;;;;12.29;100.00;101223.97;5090967;28;20040;-68
2020/12/18 03:19:30;;;;;;;38.58;6.25;;;;;;;12.31;100.00;101215.50;5090741;28;20044;-68
2020/12/18 03:21:56;;;;;;;44.55;5.47;;;;;;;12.32;100.00;101206.22;5089842;28;20047;-68
2020/12/18 03:24:22;;;;;;;32.40;4.97;;;;;;;12.32;100.00;101212.56;5090884;28;20390;-68
2020/12/18 03:26:47;;;;;;;31.92;4.35;;;;;;;12.32;100.00;101212.56;5090819;28;20139;-68
2020/12/18 03:29:13;;;;;;;40.97;5.80;;;;;;;12.32;100.00;101215.28;5090885;28;20044;-68
2020/12/18 03:31:38;;;;;;;39.47;5.35;;;;;;;12.33;100.00;101218.84;5090994;28;20042;-68
2020/12/18 03:34:04;;;;;;;39.58;5.07;;;;;;;12.33;100.00;101203.25;5090579;28;20596;-68
2020/12/18 03:36:30;;;;;;;38.63;4.75;;;;;;;12.32;100.00;101201.59;5090742;28;20412;-68
2020/12/18 03:38:55;;;;;;;33.15;4.30;;;;;;;12.33;100.00;101181.34;5090818;28;20040;-68
2020/12/18 03:41:21;;;;;;;47.58;6.35;;;;;;;12.33;100.00;101195.03;5090620;28;20182;-68
2020/12/18 03:43:46;;;;;;;42.45;5.53;;;;;;;12.33;100.00;101186.81;5090894;28;20060;-67
2020/12/18 03:46:14;;;;;;;44.08;5.80;;;;;;;12.32;100.00;101167.88;5090778;28;20055;-68
2020/12/18 03:48:40;;;;;;;33.80;4.20;;;;;;;12.32;100.00;101152.28;5090527;28;20039;-67
2020/12/18 03:51:05;;;;;;;33.47;4.40;;;;;;;12.32;100.00;101166.00;5094739;28;20032;-68
2020/12/18 03:53:31;;;;;;;33.20;5.97;;;;;;;12.33;100.00;101161.34;5094655;28;20040;-68
2020/12/18 03:55:56;;;;;;;33.15;4.65;;;;;;;12.33;100.00;101194.22;5094448;28;20051;-68
2020/12/18 03:58:22;;;;;;;46.47;6.10;;;;;;;12.33;100.00;101175.03;5094635;28;20036;-68
2020/12/18 04:00:48;;;;;;;45.03;6.50;;;;;;;12.34;100.00;101166.56;5094647;28;20039;-68
2020/12/18 04:03:13;;;;;;;40.78;5.40;;;;;;;12.33;100.00;101178.59;5094334;28;20036;-68
2020/12/18 04:05:39;;;;;;;49.70;6.03;;;;;;;12.34;100.00;101177.53;5094547;28;20035;-68
2020/12/18 04:08:06;;;;;;;40.78;5.50;;;;;;;12.34;100.00;101166.56;5094387;28;20036;-67
2020/12/18 04:10:34;;;;;;;36.58;4.97;;;;;;;12.34;100.00;101188.47;5094372;28;20048;-68
2020/12/18 04:12:59;;;;;;;38.05;5.63;;;;;;;12.34;100.00;101177.53;5094358;28;20036;-67
2020/12/18 04:15:25;;;;;;;39.42;4.05;;;;;;;12.34;100.00;101195.88;5094310;28;20113;-68
2020/12/18 04:17:50;;;;;;;45.92;5.85;;;;;;;12.35;100.00;101179.19;5092816;28;20048;-68
2020/12/18 04:20:16;;;;;;;28.38;4.20;;;;;;;12.34;100.00;101150.13;5094176;28;20131;-68
2020/12/18 04:22:42;;;;;;;33.97;4.50;;;;;;;12.34;100.00;101157.53;5094278;28;20040;-68
2020/12/18 04:25:07;;;;;;;54.10;7.40;;;;;;;12.34;100.00;101163.84;5093910;28;20051;-68
2020/12/18 04:27:33;;;;;;;33.28;5.78;;;;;;;12.34;100.00;101188.47;5094255;28;20035;-68
2020/12/18 04:29:59;;;;;;;42.60;6.22;;;;;;;12.34;100.00;101177.53;5094007;28;20054;-68
2020/12/18 04:32:24;;;;;;;42.45;4.70;;;;;;;12.35;100.00;101184.66;5093866;28;20089;-68
2020/12/18 04:34:50;;;;;;;41.17;5.72;;;;;;;12.33;100.00;101170.38;5093920;28;20063;-68
2020/12/18 04:37:16;;;;;;;44.95;6.70;;;;;;;12.34;100.00;101177.53;5092482;28;20499;-68
2020/12/18 04:39:41;;;;;;;40.50;5.00;;;;;;;12.34;100.00;101172.03;5093863;28;20569;-67
2020/12/18 04:42:08;;;;;;;52.67;7.03;;;;;;;12.34;100.00;101177.53;5093861;28;20043;-68
2020/12/18 04:44:34;;;;;;;37.92;5.30;;;;;;;12.34;100.00;101177.53;5093793;28;20069;-67
2020/12/18 04:47:00;;;;;;;44.00;5.35;;;;;;;12.36;100.00;101185.50;5093503;28;20035;-67
2020/12/18 04:49:29;;;;;;;50.58;6.25;;;;;;;12.37;100.00;101193.47;5093660;28;20066;-68
2020/12/18 04:52:00;;;;;;;50.55;7.05;;;;;;;12.35;100.00;101162.75;5093714;28;20032;-68
2020/12/18 04:54:27;;;;;;;50.65;5.07;;;;;;;12.36;100.00;101156.19;5093412;28;20032;-68
2020/12/18 04:56:54;;;;;;;49.25;6.10;;;;;;;12.37;100.00;101176.19;5093247;28;20052;-68
2020/12/18 04:59:23;;;;;;;43.63;6.80;;;;;;;12.36;100.00;101191.81;5093485;28;20036;-67
2020/12/18 05:01:53;;;;;;;50.45;6.00;;;;;;;12.35;100.00;101179.19;5092407;28;20024;-68
2020/12/18 05:04:20;;;;;;;36.13;4.72;;;;;;;12.37;100.00;101184.41;5093392;28;20390;-68
2020/12/18 05:06:46;;;;;;;40.92;5.57;;;;;;;12.38;100.00;101186.91;5093361;28;20085;-68
2020/12/18 05:09:12;;;;;;;42.40;6.63;;;;;;;12.37;100.00;101182.50;5093040;28;20036;-68
2020/12/18 05:11:37;;;;;;;49.75;6.20;;;;;;;12.38;100.00;101186.91;5093430;28;20036;-68
2020/12/18 05:14:03;;;;;;;42.63;5.65;;;;;;;12.40;100.00;101180.34;5093085;28;20036;-67
2020/12/18 05:16:29;;;;;;;38.88;4.97;;;;;;;12.40;100.00;101174.88;5074941;28;20131;-68
2020/12/18 05:19:03;;;;;;;48.85;6.15;;;;;;;12.41;100.00;101168.31;5093030;28;20090;-68
2020/12/18 05:21:29;;;;;;;43.60;5.72;;;;;;;12.42;100.00;101167.22;5091821;28;20032;-68
2020/12/18 05:23:55;;;;;;;41.55;5.32;;;;;;;12.42;100.00;101161.75;5092921;28;20044;-68
2020/12/18 05:26:26;;;;;;;47.15;5.95;;;;;;;12.42;100.00;101142.59;5092953;28;20474;-67
2020/12/18 05:28:54;;;;;;;49.45;7.13;;;;;;;12.41;100.00;101132.69;5092891;28;20042;-68
2020/12/18 05:31:20;;;;;;;42.70;5.88;;;;;;;12.43;100.00;101116.84;5092673;28;20039;-68
2020/12/18 05:33:49;;;;;;;42.28;5.25;;;;;;;12.44;100.00;101116.59;5092878;28;20176;-68
2020/12/18 05:36:14;;;;;;;52.28;6.97;;;;;;;12.43;100.00;101089.44;5092689;28;20496;-67
2020/12/18 05:38:41;;;;;;;46.53;7.10;;;;;;;12.42;100.00;101096.84;5092604;28;20122;-67
2020/12/18 05:41:08;;;;;;;47.05;6.20;;;;;;;12.42;100.00;101093.28;5092726;28;20044;-67
2020/12/18 05:43:38;;;;;;;48.47;6.45;;;;;;;12.42;100.00;101117.94;5092504;28;20044;-67
2020/12/18 05:46:32;;;;;;;46.28;6.80;;;;;;;12.42;100.00;101128.88;5092522;28;20190;-68
2020/12/18 05:49:04;;;;;;;55.55;7.60;;;;;;;12.43;100.00;101136.03;5090227;28;20522;-68
2020/12/18 05:51:30;;;;;;;45.33;6.53;;;;;;;12.44;100.00;101134.94;5092515;28;20482;-68
2020/12/18 05:54:14;;;;;;;40.42;5.70;;;;;;;12.43;100.00;101153.28;5092296;28;20035;-67
2020/12/18 05:56:42;;;;;;;58.42;7.43;;;;;;;12.44;100.00;101138.50;5092260;28;20048;-68
2020/12/18 05:59:08;;;;;;;53.28;6.32;;;;;;;12.44;100.00;101134.94;5092219;28;20491;-68
2020/12/18 06:01:38;;;;;;;54.05;6.78;;;;;;;12.45;100.00;101147.56;5092236;28;20089;-68
2020/12/18 06:04:10;;;;;;;51.63;7.65;;;;;;;12.45;100.00;101142.09;5092248;28;20508;-68
2020/12/18 06:06:41;;;;;;;51.58;6.43;;;;;;;12.45;100.00;101153.88;5092350;28;20040;-68
2020/12/18 06:09:08;;;;;;;45.88;5.50;;;;;;;12.45;100.00;101155.78;5092051;28;20038;-68
2020/12/18 06:11:35;;;;;;;44.47;6.65;;;;;;;12.45;100.00;101145.66;5092176;28;20036;-68
2020/12/18 06:14:02;;;;;;;47.65;6.03;;;;;;;12.46;100.00;101151.97;5092166;28;20082;-68
2020/12/18 06:16:29;;;;;;;53.15;7.57;;;;;;;12.46;100.00;101138.25;5092142;28;20044;-68
2020/12/18 06:19:07;;;;;;;55.80;7.20;;;;;;;12.46;100.00;101146.47;5092365;28;20036;-68
2020/12/18 06:21:33;;;;;;;52.97;7.90;;;;;;;12.45;100.00;101144.81;5092341;28;20032;-67
2020/12/18 06:24:00;;;;;;;62.15;7.78;;;;;;;12.44;100.00;101135.78;5091670;28;20032;-68
2020/12/18 06:26:26;;;;;;;60.50;8.00;;;;;;;12.45;100.00;101150.28;5091893;28;20486;-68
2020/12/18 06:28:53;;;;;;;63.95;7.03;;;;;;;12.45;100.00;101139.34;5091714;28;20048;-68
2020/12/18 06:31:31;;;;;;;46.03;5.63;;;;;;;12.46;100.00;101141.00;5091540;28;20048;-68
2020/12/18 06:34:00;;;;;;;40.40;5.18;;;;;;;12.44;100.00;101129.47;5092155;28;20044;-67
2020/12/18 06:36:43;;;;;;;60.90;7.60;;;;;;;12.43;100.00;101092.19;5091600;28;20043;-68
2020/12/18 06:39:26;;;;;;;85.57;9.25;;;;;;;12.41;100.00;101110.78;5090116;28;20470;-68
2020/12/18 06:42:10;;;;;;;65.38;8.45;;;;;;;12.37;100.00;101089.38;5091543;28;20034;-68
2020/12/18 06:44:42;;;;;;;79.63;8.80;;;;;;;12.37;100.00;101122.25;5091635;28;20047;-67
2020/12/18 06:47:13;;;;;;;79.38;9.82;;;;;;;12.35;100.00;101110.72;5091324;28;20047;-68
2020/12/18 06:49:57;;;;;;;82.53;8.13;;;;;;;12.34;100.00;101089.03;5091539;28;20420;-67
2020/12/18 06:53:08;;;;;;;136.48;13.52;;;;;;;12.33;100.00;101090.97;5091407;28;20059;-68
2020/12/18 06:55:36;;;;;;;52.00;5.80;;;;;;;12.33;100.00;101079.16;5091366;28;20056;-67
2020/12/18 06:58:17;;;;;;;59.78;6.55;;;;;;;12.32;100.00;101075.59;5091200;28;20059;-68
2020/12/18 07:00:48;;;;;;;50.08;5.93;;;;;;;12.31;100.00;101062.13;5091258;28;20083;-67
2020/12/18 07:03:40;;;;;;;56.63;6.43;;;;;;;12.33;100.00;101060.00;5091273;28;20063;-68
2020/12/18 07:06:11;;;;;;;48.92;5.78;;;;;;;12.31;100.00;101046.53;5091139;28;20047;-68
2020/12/18 07:08:40;;;;;;;47.72;6.38;;;;;;;12.33;100.00;101068.22;5091070;28;20466;-68
2020/12/18 07:11:14;;;;;;;60.00;6.95;;;;;;;12.32;100.00;101052.84;5091218;28;20032;-68
2020/12/18 07:13:53;;;;;;;67.78;6.75;;;;;;;12.30;100.00;101055.81;5091072;28;20067;-69
2020/12/18 07:16:21;;;;;;;45.67;4.28;;;;;;;12.30;100.00;101050.34;5090853;28;20044;-68
2020/12/18 07:18:49;;;;;;;57.95;6.35;;;;;;;12.30;100.00;101055.00;5090978;28;20044;-67
2020/12/18 07:21:17;;;;;;;53.80;5.90;;;;;;;12.30;100.00;101044.03;5091004;28;20448;-67
2020/12/18 07:23:46;;;;;;;82.55;8.80;;;;;;;12.31;100.00;101041.03;5090061;28;20032;-67
2020/12/18 07:26:13;;;;;;;86.03;8.93;;;;;;;12.30;100.00;101031.16;5091009;28;20024;-68
2020/12/18 07:28:40;;;;;;;59.38;6.28;;;;;;;12.31;100.00;101035.56;5090871;28;20036;-68
2020/12/18 07:31:21;;;;;;;60.83;6.63;;;;;;;12.31;100.00;101024.59;5090829;28;20040;-67
2020/12/18 07:33:56;;;;;;;53.55;7.05;;;;;;;12.31;100.00;101019.13;5090975;28;20032;-68
2020/12/18 07:36:27;;;;;;;67.85;6.47;;;;;;;12.34;100.00;100998.66;5090865;28;20132;-68
2020/12/18 07:39:00;;;;;;;52.83;5.85;;;;;;;12.32;100.00;101009.00;5089178;28;20036;-68
2020/12/18 07:41:29;;;;;;;63.55;7.43;;;;;;;12.34;100.00;101002.22;5090910;28;20119;-68
2020/12/18 07:44:06;;;;;;;57.65;6.30;;;;;;;12.35;100.00;101003.88;5090871;28;20032;-68
2020/12/18 07:46:34;;;;;;;63.53;7.05;;;;;;;12.35;100.00;101014.84;5090587;28;20103;-67
2020/12/18 07:49:08;;;;;;;56.15;6.18;;;;;;;12.38;100.00;101014.34;5090622;28;20105;-67
2020/12/18 07:51:35;;;;;;;55.75;7.13;;;;;;;12.41;100.00;101001.22;5090819;28;20042;-68
2020/12/18 07:54:01;;;;;;;50.03;6.75;;;;;;;12.43;100.00;101004.53;5090445;28;20512;-68
2020/12/18 07:56:27;;;;;;;53.83;7.60;;;;;;;12.45;100.00;101007.84;5090663;28;20052;-68
2020/12/18 07:59:03;;;;;;;52.60;6.15;;;;;;;12.47;100.00;100978.28;5090630;28;20080;-68
2020/12/18 08:01:31;;;;;;;52.33;5.63;;;;;;;12.48;100.00;100974.47;5090589;28;20036;-68
2020/12/18 08:04:02;;;;;;;55.22;5.60;;;;;;;12.47;100.00;100964.59;5089172;28;20037;-68
2020/12/18 08:06:32;;;;;;;63.13;6.35;;;;;;;12.48;100.00;100968.97;5090571;28;20047;-68
2020/12/18 08:09:11;;;;;;;47.30;6.93;;;;;;;12.47;100.00;100976.38;5090461;28;20105;-68
2020/12/18 08:11:42;;;;;;;56.78;7.15;;;;;;;12.48;100.00;100980.78;5090525;28;20085;-68
2020/12/18 08:14:09;;;;;;;54.63;7.55;;;;;;;12.50;100.00;100988.75;5090422;28;20077;-68
2020/12/18 08:16:35;;;;;;;64.97;8.32;;;;;;;12.54;100.00;100985.25;5090513;28;20032;-68
2020/12/18 08:19:12;;;;;;;49.67;6.28;;;;;;;12.57;100.00;100978.44;5090485;28;20162;-68
2020/12/18 08:21:42;;;;;;;68.85;7.10;;;;;;;12.58;100.00;100958.19;5090360;28;20578;-68
2020/12/18 08:24:14;;;;;;;51.10;7.75;;;;;;;12.59;100.00;100954.34;5090382;28;20508;-68
2020/12/18 08:26:46;;;;;;;55.22;7.70;;;;;;;12.61;100.00;100954.94;5090359;28;20064;-68
2020/12/18 08:29:12;;;;;;;66.22;7.18;;;;;;;12.62;100.00;100954.69;5090183;28;20067;-68
2020/12/18 08:31:42;;;;;;;50.03;7.55;;;;;;;12.62;100.00;100938.25;5090402;28;20047;-68
2020/12/18 08:34:14;;;;;;;61.22;7.60;;;;;;;12.64;100.00;100940.72;5090360;28;20039;-68
2020/12/18 08:36:43;;;;;;;58.65;7.55;;;;;;;12.64;100.00;100929.75;5091452;28;20455;-68
2020/12/18 08:39:11;;;;;;;57.03;8.02;;;;;;;12.65;100.00;100914.97;5093981;28;20070;-68
2020/12/18 08:41:49;;;;;;;57.17;7.68;;;;;;;12.66;100.00;100913.88;5093846;28;20044;-68
2020/12/18 08:44:17;;;;;;;56.55;6.40;;;;;;;12.64;100.00;100905.09;5096310;28;20509;-68
2020/12/18 08:46:43;;;;;;;57.50;7.03;;;;;;;12.67;100.00;100907.34;5093841;28;20028;-67
2020/12/18 08:49:25;;;;;;;55.60;7.40;;;;;;;12.68;100.00;100903.53;5093739;28;20039;-67
2020/12/18 08:51:54;;;;;;;64.53;8.60;;;;;;;12.70;100.00;100928.75;5093554;28;20085;-69
2020/12/18 08:54:30;;;;;;;59.92;8.10;;;;;;;12.71;100.00;100924.94;5093528;28;20028;-69
2020/12/18 08:57:23;;;;;;;49.42;7.55;;;;;;;12.71;100.00;100930.41;5093190;28;20520;-68
2020/12/18 08:59:57;;;;;;;62.42;8.32;;;;;;;12.70;100.00;100931.50;5094313;28;20043;-67
2020/12/18 09:02:29;;;;;;;57.05;6.75;;;;;;;12.73;100.00;100933.72;5083159;28;20043;-66
2020/12/18 09:05:23;;;;;;;54.88;8.20;;;;;;;12.75;100.00;100926.09;5093620;28;20535;-68
2020/12/18 09:07:53;;;;;;;61.05;7.93;;;;;;;12.78;100.00;100909.13;5071635;28;20060;-69
2020/12/18 09:10:32;;;;;;;52.80;7.68;;;;;;;12.78;100.00;100928.31;5073564;28;20094;-68
2020/12/18 09:13:29;;;;;;;58.47;8.57;;;;;;;12.79;100.00;100926.41;5072962;28;20058;-67
2020/12/18 09:16:00;;;;;;;66.25;8.23;;;;;;;12.81;100.00;100916.81;5071634;28;20375;-69
2020/12/18 09:18:28;;;;;;;57.22;8.05;;;;;;;12.83;100.00;100909.19;5082402;28;20043;-68
2020/12/18 09:20:54;;;;;;;68.65;8.90;;;;;;;12.84;100.00;100896.28;5104472;28;20035;-69
2020/12/18 09:23:31;;;;;;;58.45;7.80;;;;;;;12.84;100.00;100930.06;5093090;28;20047;-67
2020/12/18 09:25:58;;;;;;;74.90;9.80;;;;;;;12.86;100.00;100911.44;5099789;28;20032;-69
2020/12/18 09:28:24;;;;;;;73.57;9.55;;;;;;;12.86;100.00;100911.44;5092730;28;20067;-69
2020/12/18 09:30:57;;;;;;;63.83;10.20;;;;;;;12.88;100.00;100917.47;5092873;28;20035;-66
2020/12/18 09:33:25;;;;;;;71.20;10.45;;;;;;;12.89;100.00;100921.88;5092930;28;20466;-66
2020/12/18 09:35:56;;;;;;;74.47;9.57;;;;;;;12.89;100.00;100915.56;5092475;28;20063;-67
2020/12/18 09:38:33;;;;;;;70.25;10.02;;;;;;;12.91;100.00;100924.38;5104963;28;20040;-69
2020/12/18 09:41:02;;;;;;;84.25;10.85;;;;;;;12.90;100.00;100931.75;5096895;28;20028;-68
2020/12/18 09:43:28;;;;;;;74.60;9.23;;;;;;;12.90;100.00;100918.06;5092468;28;20218;-68
2020/12/18 09:45:55;;;;;;;79.25;10.27;;;;;;;12.90;100.00;100926.28;5092566;28;20028;-68
2020/12/18 09:48:21;;;;;;;76.38;10.18;;;;;;;12.91;100.00;100929.84;5092082;28;20398;-68
2020/12/18 09:50:49;;;;;;;73.80;10.82;;;;;;;12.91;100.00;100935.31;5092342;28;20036;-66
2020/12/18 09:53:15;;;;;;;72.88;11.07;;;;;;;12.91;100.00;100924.38;5091156;28;20410;-66
2020/12/18 09:55:41;;;;;;;60.50;8.38;;;;;;;12.91;100.00;100925.19;5092349;28;20065;-68
2020/12/18 09:58:06;;;;;;;60.80;10.50;;;;;;;12.92;100.00;100943.28;5096966;28;20059;-67
2020/12/18 10:00:32;;;;;;;81.72;11.02;;;;;;;12.93;100.00;100922.19;5100840;28;20054;-68
2020/12/18 10:02:58;;;;;;;82.95;10.98;;;;;;;12.91;100.00;100936.16;5092157;28;20075;-68
2020/12/18 10:05:25;;;;;;;72.60;10.48;;;;;;;12.94;100.00;100946.59;5092597;28;20055;-70
2020/12/18 10:07:52;;;;;;;85.80;11.75;;;;;;;12.94;100.00;100945.78;5092149;28;20451;-69
2020/12/18 10:10:17;;;;;;;74.70;9.05;;;;;;;12.96;100.00;100963.63;5092197;28;20040;-69
2020/12/18 10:12:43;;;;;;;73.93;11.90;;;;;;;12.95;100.00;100942.78;5091892;28;20097;-69
2020/12/18 10:15:09;;;;;;;68.13;9.93;;;;;;;12.98;100.00;100957.88;5092016;28;20054;-69
2020/12/18 10:17:34;;;;;;;78.50;11.23;;;;;;;12.98;100.00;100947.75;5091918;28;20082;-69
2020/12/18 10:20:00;;;;;;;84.18;9.85;;;;;;;13.00;100.00;100961.19;5091808;28;20039;-71
2020/12/18 10:22:26;;;;;;;78.82;10.25;;;;;;;13.00;100.00;100955.72;5091935;28;20036;-70
2020/12/18 10:24:52;;;;;;;68.03;10.35;;;;;;;13.00;100.00;100952.97;5091902;28;20132;-69
2020/12/18 10:27:18;;;;;;;78.35;10.18;;;;;;;13.01;100.00;100964.75;5091627;28;20032;-70
2020/12/18 10:29:44;;;;;;;79.70;10.20;;;;;;;13.01;100.00;100929.13;5090539;28;20036;-70
2020/12/18 10:32:10;;;;;;;93.55;11.70;;;;;;;13.02;100.00;100947.25;5090474;28;20097;-68
2020/12/18 10:34:35;;;;;;;77.15;12.57;;;;;;;13.03;100.00;100948.91;5091451;28;20089;-67
2020/12/18 10:37:01;;;;;;;77.00;12.02;;;;;;;13.05;100.00;100949.47;5091657;28;20039;-70
2020/12/18 10:39:27;;;;;;;68.53;11.13;;;;;;;13.03;100.00;100935.22;5091670;28;20036;-71
2020/12/18 10:41:54;;;;;;;82.85;11.50;;;;;;;13.05;100.00;100944.00;5091587;28;20032;-69
2020/12/18 10:44:20;;;;;;;84.60;12.88;;;;;;;13.07;100.00;100947.31;5091820;28;20040;-69
2020/12/18 10:46:49;;;;;;;82.22;12.02;;;;;;;13.07;100.00;100914.41;5091489;28;20085;-70
2020/12/18 10:49:17;;;;;;;79.82;10.98;;;;;;;13.06;100.00;100956.63;5091433;28;20057;-71
2020/12/18 10:51:44;;;;;;;72.45;10.95;;;;;;;13.07;100.00;100939.09;5097758;28;20035;-72
2020/12/18 10:54:10;;;;;;;66.78;11.13;;;;;;;13.07;100.00;100950.06;5092515;28;20397;-69
2020/12/18 10:56:43;;;;;;;91.68;13.13;;;;;;;13.07;100.00;100917.16;5096528;28;20047;-70
2020/12/18 10:59:10;;;;;;;85.50;11.88;;;;;;;13.06;100.00;100934.69;5110936;28;20128;-69
2020/12/18 11:01:36;;;;;;;85.70;13.50;;;;;;;13.05;100.00;100924.81;5111735;28;20485;-69
2020/12/18 11:04:02;;;;;;;92.18;13.20;;;;;;;13.03;100.00;100888.59;5111470;28;20062;-69
2020/12/18 11:06:28;;;;;;;95.40;13.18;;;;;;;13.05;100.00;100931.13;5111415;28;20035;-68
2020/12/18 11:08:54;;;;;;;95.28;13.13;;;;;;;13.02;100.00;100925.31;5104620;28;20051;-68
2020/12/18 11:11:20;;;;;;;88.50;11.27;;;;;;;13.02;100.00;100920.66;5091230;28;20028;-68
2020/12/18 11:13:46;;;;;;;86.32;13.02;;;;;;;13.02;100.00;100914.34;5090830;28;20039;-69